sensor_id;sensor_type;location;lat;lon;timestamp;temperature;humidity
52495;DHT22;38405;53.212;5.660;2023-11-19T00:00:56;12.30;99.90
52495;DHT22;38405;53.212;5.660;2023-11-19T00:03:22;12.30;99.90
52495;DHT22;38405;53.212;5.660;2023-11-19T00:05:47;12.30;99.90
52495;DHT22;38405;53.212;5.660;2023-11-19T00:08:13;12.20;99.90
52495;DHT22;38405;53.212;5.660;2023-11-19T00:10:40;12.50;99.90
52495;DHT22;38405;53.212;5.660;2023-11-19T00:13:06;12.30;99.90
52495;DHT22;38405;53.212;5.660;2023-11-19T00:15:32;12.20;99.90
52495;DHT22;38405;53.212;5.660;2023-11-19T00:17:58;12.30;99.90
52495;DHT22;38405;53.212;5.660;2023-11-19T00:20:23;12.30;99.90
52495;DHT22;38405;53.212;5.660;2023-11-19T00:22:49;12.20;99.90
52495;DHT22;38405;53.212;5.660;2023-11-19T00:25:18;12.30;99.90
52495;DHT22;38405;53.212;5.660;2023-11-19T00:27:43;12.30;99.90
52495;DHT22;38405;53.212;5.660;2023-11-19T00:30:12;12.30;99.90
52495;DHT22;38405;53.212;5.660;2023-11-19T00:32:39;12.30;99.90
52495;DHT22;38405;53.212;5.660;2023-11-19T00:35:08;12.40;99.90
52495;DHT22;38405;53.212;5.660;2023-11-19T00:37:35;12.40;99.90
52495;DHT22;38405;53.212;5.660;2023-11-19T00:40:01;12.30;99.90
52495;DHT22;38405;53.212;5.660;2023-11-19T00:42:30;12.30;99.90
52495;DHT22;38405;53.212;5.660;2023-11-19T00:44:56;12.30;99.90
52495;DHT22;38405;53.212;5.660;2023-11-19T00:47:23;12.30;99.90
52495;DHT22;38405;53.212;5.660;2023-11-19T00:49:49;12.20;99.90
52495;DHT22;38405;53.212;5.660;2023-11-19T00:52:16;12.30;99.90
52495;DHT22;38405;53.212;5.660;2023-11-19T00:54:42;12.30;99.90
52495;DHT22;38405;53.212;5.660;2023-11-19T00:57:07;12.20;99.90
52495;DHT22;38405;53.212;5.660;2023-11-19T00:59:33;12.20;99.90
52495;DHT22;38405;53.212;5.660;2023-11-19T01:01:58;12.20;99.90
52495;DHT22;38405;53.212;5.660;2023-11-19T01:04:29;12.10;99.90
52495;DHT22;38405;53.212;5.660;2023-11-19T01:06:55;12.10;99.90
52495;DHT22;38405;53.212;5.660;2023-11-19T01:09:20;12.10;99.90
52495;DHT22;38405;53.212;5.660;2023-11-19T01:11:46;12.00;99.90
52495;DHT22;38405;53.212;5.660;2023-11-19T01:14:11;12.00;99.90
52495;DHT22;38405;53.212;5.660;2023-11-19T01:16:37;12.00;99.90
52495;DHT22;38405;53.212;5.660;2023-11-19T01:19:03;12.00;99.90
52495;DHT22;38405;53.212;5.660;2023-11-19T01:21:30;11.90;99.90
52495;DHT22;38405;53.212;5.660;2023-11-19T01:23:57;11.90;99.90
52495;DHT22;38405;53.212;5.660;2023-11-19T01:26:24;11.90;99.90
52495;DHT22;38405;53.212;5.660;2023-11-19T01:28:49;11.90;99.90
52495;DHT22;38405;53.212;5.660;2023-11-19T01:31:18;11.90;99.90
52495;DHT22;38405;53.212;5.660;2023-11-19T01:33:44;11.90;99.90
52495;DHT22;38405;53.212;5.660;2023-11-19T01:36:13;11.70;99.90
52495;DHT22;38405;53.212;5.660;2023-11-19T01:38:39;11.70;99.90
52495;DHT22;38405;53.212;5.660;2023-11-19T01:41:04;11.60;99.90
52495;DHT22;38405;53.212;5.660;2023-11-19T01:46:00;11.50;99.90
52495;DHT22;38405;53.212;5.660;2023-11-19T01:48:26;11.50;99.90
52495;DHT22;38405;53.212;5.660;2023-11-19T01:50:53;11.40;99.90
52495;DHT22;38405;53.212;5.660;2023-11-19T01:53:19;11.30;99.90
52495;DHT22;38405;53.212;5.660;2023-11-19T01:55:46;11.30;99.90
52495;DHT22;38405;53.212;5.660;2023-11-19T01:58:13;11.30;99.90
52495;DHT22;38405;53.212;5.660;2023-11-19T02:00:39;11.30;99.90
52495;DHT22;38405;53.212;5.660;2023-11-19T02:03:06;11.30;99.90
52495;DHT22;38405;53.212;5.660;2023-11-19T02:05:34;11.40;99.90
52495;DHT22;38405;53.212;5.660;2023-11-19T02:08:00;11.30;99.90
52495;DHT22;38405;53.212;5.660;2023-11-19T02:10:26;11.40;99.90
52495;DHT22;38405;53.212;5.660;2023-11-19T02:12:52;11.30;99.90
52495;DHT22;38405;53.212;5.660;2023-11-19T02:15:18;11.30;99.90
52495;DHT22;38405;53.212;5.660;2023-11-19T02:17:50;11.30;99.90
52495;DHT22;38405;53.212;5.660;2023-11-19T02:20:16;11.30;99.90
52495;DHT22;38405;53.212;5.660;2023-11-19T02:22:41;11.30;99.90
52495;DHT22;38405;53.212;5.660;2023-11-19T02:25:10;11.40;99.90
52495;DHT22;38405;53.212;5.660;2023-11-19T02:28:00;11.20;99.90
52495;DHT22;38405;53.212;5.660;2023-11-19T02:30:26;11.30;99.90
52495;DHT22;38405;53.212;5.660;2023-11-19T02:32:58;11.30;99.90
52495;DHT22;38405;53.212;5.660;2023-11-19T02:35:27;11.30;99.90
52495;DHT22;38405;53.212;5.660;2023-11-19T02:37:55;11.50;99.90
52495;DHT22;38405;53.212;5.660;2023-11-19T02:40:21;11.40;99.90
52495;DHT22;38405;53.212;5.660;2023-11-19T02:42:48;11.50;99.90
52495;DHT22;38405;53.212;5.660;2023-11-19T02:45:14;11.50;99.90
52495;DHT22;38405;53.212;5.660;2023-11-19T02:47:43;11.50;99.90
52495;DHT22;38405;53.212;5.660;2023-11-19T02:50:10;11.60;99.90
52495;DHT22;38405;53.212;5.660;2023-11-19T02:52:43;11.60;99.90
52495;DHT22;38405;53.212;5.660;2023-11-19T02:55:10;11.70;99.90
52495;DHT22;38405;53.212;5.660;2023-11-19T02:57:38;11.70;99.90
52495;DHT22;38405;53.212;5.660;2023-11-19T03:00:15;11.70;99.90
52495;DHT22;38405;53.212;5.660;2023-11-19T03:02:41;11.60;99.90
52495;DHT22;38405;53.212;5.660;2023-11-19T03:05:14;11.70;99.90
52495;DHT22;38405;53.212;5.660;2023-11-19T03:07:44;11.60;99.90
52495;DHT22;38405;53.212;5.660;2023-11-19T03:10:10;11.60;99.90
52495;DHT22;38405;53.212;5.660;2023-11-19T03:12:39;11.70;99.90
52495;DHT22;38405;53.212;5.660;2023-11-19T03:15:06;11.70;99.90
52495;DHT22;38405;53.212;5.660;2023-11-19T03:17:32;11.70;99.90
52495;DHT22;38405;53.212;5.660;2023-11-19T03:20:00;11.70;99.90
52495;DHT22;38405;53.212;5.660;2023-11-19T03:22:26;11.70;99.90
52495;DHT22;38405;53.212;5.660;2023-11-19T03:24:52;11.70;99.90
52495;DHT22;38405;53.212;5.660;2023-11-19T03:27:17;11.70;99.90
52495;DHT22;38405;53.212;5.660;2023-11-19T03:29:43;11.80;99.90
52495;DHT22;38405;53.212;5.660;2023-11-19T03:32:08;11.70;99.90
52495;DHT22;38405;53.212;5.660;2023-11-19T03:34:34;11.70;99.90
52495;DHT22;38405;53.212;5.660;2023-11-19T03:37:00;11.70;99.90
52495;DHT22;38405;53.212;5.660;2023-11-19T03:39:25;11.60;99.90
52495;DHT22;38405;53.212;5.660;2023-11-19T03:41:52;11.50;99.90
52495;DHT22;38405;53.212;5.660;2023-11-19T03:44:18;11.50;99.90
52495;DHT22;38405;53.212;5.660;2023-11-19T03:46:45;11.10;99.90
52495;DHT22;38405;53.212;5.660;2023-11-19T03:49:11;11.30;99.90
52495;DHT22;38405;53.212;5.660;2023-11-19T03:51:37;11.30;99.90
52495;DHT22;38405;53.212;5.660;2023-11-19T03:54:03;11.20;99.90
52495;DHT22;38405;53.212;5.660;2023-11-19T03:56:29;11.10;99.90
52495;DHT22;38405;53.212;5.660;2023-11-19T03:58:56;11.10;99.90
52495;DHT22;38405;53.212;5.660;2023-11-19T04:01:22;11.00;99.90
52495;DHT22;38405;53.212;5.660;2023-11-19T04:03:47;11.10;99.90
52495;DHT22;38405;53.212;5.660;2023-11-19T04:06:13;11.00;99.90
52495;DHT22;38405;53.212;5.660;2023-11-19T04:08:38;10.90;99.90
52495;DHT22;38405;53.212;5.660;2023-11-19T04:11:04;10.90;99.90
52495;DHT22;38405;53.212;5.660;2023-11-19T04:13:30;10.90;99.90
52495;DHT22;38405;53.212;5.660;2023-11-19T04:15:56;11.20;99.90
52495;DHT22;38405;53.212;5.660;2023-11-19T04:18:21;11.00;99.90
52495;DHT22;38405;53.212;5.660;2023-11-19T04:20:47;11.00;99.90
52495;DHT22;38405;53.212;5.660;2023-11-19T04:23:13;11.10;99.90
52495;DHT22;38405;53.212;5.660;2023-11-19T04:25:38;11.10;99.90
52495;DHT22;38405;53.212;5.660;2023-11-19T04:28:04;11.10;99.90
52495;DHT22;38405;53.212;5.660;2023-11-19T04:30:29;11.10;99.90
52495;DHT22;38405;53.212;5.660;2023-11-19T04:32:57;11.10;99.90
52495;DHT22;38405;53.212;5.660;2023-11-19T04:35:23;11.30;99.90
52495;DHT22;38405;53.212;5.660;2023-11-19T04:37:48;11.40;99.90
52495;DHT22;38405;53.212;5.660;2023-11-19T04:40:14;11.50;99.90
52495;DHT22;38405;53.212;5.660;2023-11-19T04:42:40;11.10;99.90
52495;DHT22;38405;53.212;5.660;2023-11-19T04:45:06;11.10;99.90
52495;DHT22;38405;53.212;5.660;2023-11-19T04:47:33;11.10;99.90
52495;DHT22;38405;53.212;5.660;2023-11-19T04:49:59;11.60;99.90
52495;DHT22;38405;53.212;5.660;2023-11-19T04:52:25;11.10;99.90
52495;DHT22;38405;53.212;5.660;2023-11-19T04:54:51;11.20;99.90
52495;DHT22;38405;53.212;5.660;2023-11-19T04:57:17;11.20;99.90
52495;DHT22;38405;53.212;5.660;2023-11-19T04:59:42;11.20;99.90
52495;DHT22;38405;53.212;5.660;2023-11-19T05:02:09;11.50;99.90
52495;DHT22;38405;53.212;5.660;2023-11-19T05:04:34;11.30;99.90
52495;DHT22;38405;53.212;5.660;2023-11-19T05:07:00;11.50;99.90
52495;DHT22;38405;53.212;5.660;2023-11-19T05:09:26;11.20;99.90
52495;DHT22;38405;53.212;5.660;2023-11-19T05:11:52;11.40;99.90
52495;DHT22;38405;53.212;5.660;2023-11-19T05:14:18;11.20;99.90
52495;DHT22;38405;53.212;5.660;2023-11-19T05:16:47;11.30;99.90
52495;DHT22;38405;53.212;5.660;2023-11-19T05:19:13;11.20;99.90
52495;DHT22;38405;53.212;5.660;2023-11-19T05:21:42;11.20;99.90
52495;DHT22;38405;53.212;5.660;2023-11-19T05:24:08;11.20;99.90
52495;DHT22;38405;53.212;5.660;2023-11-19T05:26:34;11.20;99.90
52495;DHT22;38405;53.212;5.660;2023-11-19T05:29:00;11.10;99.90
52495;DHT22;38405;53.212;5.660;2023-11-19T05:31:25;11.10;99.90
52495;DHT22;38405;53.212;5.660;2023-11-19T05:33:51;11.30;99.90
52495;DHT22;38405;53.212;5.660;2023-11-19T05:36:17;11.20;99.90
52495;DHT22;38405;53.212;5.660;2023-11-19T05:38:42;11.20;99.90
52495;DHT22;38405;53.212;5.660;2023-11-19T05:41:10;11.30;99.90
52495;DHT22;38405;53.212;5.660;2023-11-19T05:43:35;11.30;99.90
52495;DHT22;38405;53.212;5.660;2023-11-19T05:46:01;11.30;99.90
52495;DHT22;38405;53.212;5.660;2023-11-19T05:48:27;11.30;99.90
52495;DHT22;38405;53.212;5.660;2023-11-19T05:50:53;11.30;99.90
52495;DHT22;38405;53.212;5.660;2023-11-19T05:53:20;11.70;99.90
52495;DHT22;38405;53.212;5.660;2023-11-19T05:55:46;11.30;99.90
52495;DHT22;38405;53.212;5.660;2023-11-19T05:58:14;11.20;99.90
52495;DHT22;38405;53.212;5.660;2023-11-19T06:00:40;11.30;99.90
52495;DHT22;38405;53.212;5.660;2023-11-19T06:03:08;11.50;99.90
52495;DHT22;38405;53.212;5.660;2023-11-19T06:05:34;11.30;99.90
52495;DHT22;38405;53.212;5.660;2023-11-19T06:07:59;11.40;99.90
52495;DHT22;38405;53.212;5.660;2023-11-19T06:10:25;11.40;99.90
52495;DHT22;38405;53.212;5.660;2023-11-19T06:12:58;11.40;99.90
52495;DHT22;38405;53.212;5.660;2023-11-19T06:15:25;11.40;99.90
52495;DHT22;38405;53.212;5.660;2023-11-19T06:17:51;11.30;99.90
52495;DHT22;38405;53.212;5.660;2023-11-19T06:20:17;11.40;99.90
52495;DHT22;38405;53.212;5.660;2023-11-19T06:22:45;11.40;99.90
52495;DHT22;38405;53.212;5.660;2023-11-19T06:25:11;11.40;99.90
52495;DHT22;38405;53.212;5.660;2023-11-19T06:27:37;11.40;99.90
52495;DHT22;38405;53.212;5.660;2023-11-19T06:30:03;11.40;99.90
52495;DHT22;38405;53.212;5.660;2023-11-19T06:32:29;11.40;99.90
52495;DHT22;38405;53.212;5.660;2023-11-19T06:34:55;11.40;99.90
52495;DHT22;38405;53.212;5.660;2023-11-19T06:37:22;11.40;99.90
52495;DHT22;38405;53.212;5.660;2023-11-19T06:39:48;11.40;99.90
52495;DHT22;38405;53.212;5.660;2023-11-19T06:42:14;11.40;99.90
52495;DHT22;38405;53.212;5.660;2023-11-19T06:44:40;11.40;99.90
52495;DHT22;38405;53.212;5.660;2023-11-19T06:47:05;11.40;99.90
52495;DHT22;38405;53.212;5.660;2023-11-19T06:49:31;11.40;99.90
52495;DHT22;38405;53.212;5.660;2023-11-19T06:51:58;11.50;99.90
52495;DHT22;38405;53.212;5.660;2023-11-19T06:54:24;11.80;99.90
52495;DHT22;38405;53.212;5.660;2023-11-19T06:56:49;11.50;99.90
52495;DHT22;38405;53.212;5.660;2023-11-19T06:59:15;11.50;99.90
52495;DHT22;38405;53.212;5.660;2023-11-19T07:01:40;11.40;99.90
52495;DHT22;38405;53.212;5.660;2023-11-19T07:04:11;11.50;99.90
52495;DHT22;38405;53.212;5.660;2023-11-19T07:06:38;11.60;99.90
52495;DHT22;38405;53.212;5.660;2023-11-19T07:09:04;11.40;99.90
52495;DHT22;38405;53.212;5.660;2023-11-19T07:11:39;11.40;99.90
52495;DHT22;38405;53.212;5.660;2023-11-19T07:14:05;11.30;99.90
52495;DHT22;38405;53.212;5.660;2023-11-19T07:16:34;11.30;99.90
52495;DHT22;38405;53.212;5.660;2023-11-19T07:19:01;11.30;99.90
52495;DHT22;38405;53.212;5.660;2023-11-19T07:21:27;11.00;99.90
52495;DHT22;38405;53.212;5.660;2023-11-19T07:23:56;11.20;99.90
52495;DHT22;38405;53.212;5.660;2023-11-19T07:26:22;11.20;99.90
52495;DHT22;38405;53.212;5.660;2023-11-19T07:28:48;11.20;99.90
52495;DHT22;38405;53.212;5.660;2023-11-19T07:31:14;11.30;99.90
52495;DHT22;38405;53.212;5.660;2023-11-19T07:33:40;11.30;99.90
52495;DHT22;38405;53.212;5.660;2023-11-19T07:36:08;11.30;99.90
52495;DHT22;38405;53.212;5.660;2023-11-19T07:38:34;11.30;99.90
52495;DHT22;38405;53.212;5.660;2023-11-19T07:41:00;11.40;99.90
52495;DHT22;38405;53.212;5.660;2023-11-19T07:43:26;11.40;99.90
52495;DHT22;38405;53.212;5.660;2023-11-19T07:45:51;11.40;99.90
52495;DHT22;38405;53.212;5.660;2023-11-19T07:48:17;11.40;99.90
52495;DHT22;38405;53.212;5.660;2023-11-19T07:50:48;11.40;99.90
52495;DHT22;38405;53.212;5.660;2023-11-19T07:53:16;11.40;99.90
52495;DHT22;38405;53.212;5.660;2023-11-19T07:55:42;11.40;99.90
52495;DHT22;38405;53.212;5.660;2023-11-19T07:58:07;11.40;99.90
52495;DHT22;38405;53.212;5.660;2023-11-19T08:00:33;11.40;99.90
52495;DHT22;38405;53.212;5.660;2023-11-19T08:02:58;11.40;99.90
52495;DHT22;38405;53.212;5.660;2023-11-19T08:05:24;11.50;99.90
52495;DHT22;38405;53.212;5.660;2023-11-19T08:07:50;11.50;99.90
52495;DHT22;38405;53.212;5.660;2023-11-19T08:10:19;11.50;99.90
52495;DHT22;38405;53.212;5.660;2023-11-19T08:12:44;11.40;99.90
52495;DHT22;38405;53.212;5.660;2023-11-19T08:15:10;11.40;99.90
52495;DHT22;38405;53.212;5.660;2023-11-19T08:17:36;11.50;99.90
52495;DHT22;38405;53.212;5.660;2023-11-19T08:20:03;11.50;99.90
52495;DHT22;38405;53.212;5.660;2023-11-19T08:22:30;11.50;99.90
52495;DHT22;38405;53.212;5.660;2023-11-19T08:24:56;11.60;99.90
52495;DHT22;38405;53.212;5.660;2023-11-19T08:27:22;11.60;99.90
52495;DHT22;38405;53.212;5.660;2023-11-19T08:29:54;11.70;99.90
52495;DHT22;38405;53.212;5.660;2023-11-19T08:32:28;11.70;99.90
52495;DHT22;38405;53.212;5.660;2023-11-19T08:34:54;11.70;99.90
52495;DHT22;38405;53.212;5.660;2023-11-19T08:37:19;11.60;99.90
52495;DHT22;38405;53.212;5.660;2023-11-19T08:39:50;11.60;99.90
52495;DHT22;38405;53.212;5.660;2023-11-19T08:42:16;11.50;99.90
52495;DHT22;38405;53.212;5.660;2023-11-19T08:44:43;11.60;99.90
52495;DHT22;38405;53.212;5.660;2023-11-19T08:47:11;11.70;99.90
52495;DHT22;38405;53.212;5.660;2023-11-19T08:49:38;11.70;99.90
52495;DHT22;38405;53.212;5.660;2023-11-19T08:52:05;11.70;99.90
52495;DHT22;38405;53.212;5.660;2023-11-19T08:54:32;11.80;99.90
52495;DHT22;38405;53.212;5.660;2023-11-19T08:56:58;11.80;99.90
52495;DHT22;38405;53.212;5.660;2023-11-19T08:59:25;11.90;99.90
52495;DHT22;38405;53.212;5.660;2023-11-19T09:01:50;11.90;99.90
52495;DHT22;38405;53.212;5.660;2023-11-19T09:04:16;11.90;99.90
52495;DHT22;38405;53.212;5.660;2023-11-19T09:06:42;11.90;99.90
52495;DHT22;38405;53.212;5.660;2023-11-19T09:09:08;11.90;99.90
52495;DHT22;38405;53.212;5.660;2023-11-19T09:11:35;11.90;99.90
52495;DHT22;38405;53.212;5.660;2023-11-19T09:14:02;12.00;99.90
52495;DHT22;38405;53.212;5.660;2023-11-19T09:16:27;12.10;99.90
52495;DHT22;38405;53.212;5.660;2023-11-19T09:18:53;12.10;99.90
52495;DHT22;38405;53.212;5.660;2023-11-19T09:21:19;12.10;99.90
52495;DHT22;38405;53.212;5.660;2023-11-19T09:23:44;12.10;99.90
52495;DHT22;38405;53.212;5.660;2023-11-19T09:26:13;12.10;99.90
52495;DHT22;38405;53.212;5.660;2023-11-19T09:28:39;12.20;99.90
52495;DHT22;38405;53.212;5.660;2023-11-19T09:31:15;12.20;99.90
52495;DHT22;38405;53.212;5.660;2023-11-19T09:33:41;12.30;99.90
52495;DHT22;38405;53.212;5.660;2023-11-19T09:36:08;12.30;99.90
52495;DHT22;38405;53.212;5.660;2023-11-19T09:38:34;12.30;99.90
52495;DHT22;38405;53.212;5.660;2023-11-19T09:41:07;12.40;99.90
52495;DHT22;38405;53.212;5.660;2023-11-19T09:43:39;12.40;99.90
52495;DHT22;38405;53.212;5.660;2023-11-19T09:46:06;12.50;99.90
52495;DHT22;38405;53.212;5.660;2023-11-19T09:48:33;12.50;99.90
52495;DHT22;38405;53.212;5.660;2023-11-19T09:51:01;12.50;99.90
52495;DHT22;38405;53.212;5.660;2023-11-19T09:53:27;12.50;99.90
52495;DHT22;38405;53.212;5.660;2023-11-19T09:55:53;12.50;99.90
52495;DHT22;38405;53.212;5.660;2023-11-19T09:58:19;12.50;99.90
52495;DHT22;38405;53.212;5.660;2023-11-19T10:00:45;12.50;99.90
52495;DHT22;38405;53.212;5.660;2023-11-19T10:03:11;12.50;99.90
52495;DHT22;38405;53.212;5.660;2023-11-19T10:05:40;12.50;99.90
52495;DHT22;38405;53.212;5.660;2023-11-19T10:08:06;12.60;99.90
52495;DHT22;38405;53.212;5.660;2023-11-19T10:10:34;12.60;99.90
52495;DHT22;38405;53.212;5.660;2023-11-19T10:12:59;12.60;99.90
52495;DHT22;38405;53.212;5.660;2023-11-19T10:15:26;12.60;99.90
52495;DHT22;38405;53.212;5.660;2023-11-19T10:17:58;12.60;99.90
52495;DHT22;38405;53.212;5.660;2023-11-19T10:20:24;12.60;99.90
52495;DHT22;38405;53.212;5.660;2023-11-19T10:22:55;12.60;99.90
52495;DHT22;38405;53.212;5.660;2023-11-19T10:25:23;12.50;99.90
52495;DHT22;38405;53.212;5.660;2023-11-19T10:27:50;12.50;99.90
52495;DHT22;38405;53.212;5.660;2023-11-19T10:30:26;12.50;99.90
52495;DHT22;38405;53.212;5.660;2023-11-19T10:33:08;12.50;99.90
52495;DHT22;38405;53.212;5.660;2023-11-19T10:35:35;12.50;99.90
52495;DHT22;38405;53.212;5.660;2023-11-19T10:38:13;12.50;99.90
52495;DHT22;38405;53.212;5.660;2023-11-19T10:40:40;12.50;99.90
52495;DHT22;38405;53.212;5.660;2023-11-19T10:43:06;12.60;99.90
52495;DHT22;38405;53.212;5.660;2023-11-19T10:45:36;12.60;99.90
52495;DHT22;38405;53.212;5.660;2023-11-19T10:48:03;12.80;99.90
52495;DHT22;38405;53.212;5.660;2023-11-19T10:50:39;12.60;99.90
52495;DHT22;38405;53.212;5.660;2023-11-19T10:53:09;12.70;99.90
52495;DHT22;38405;53.212;5.660;2023-11-19T10:55:37;12.70;99.90
52495;DHT22;38405;53.212;5.660;2023-11-19T10:58:10;12.70;99.90
52495;DHT22;38405;53.212;5.660;2023-11-19T11:00:47;12.70;99.90
52495;DHT22;38405;53.212;5.660;2023-11-19T11:03:19;12.80;99.90
52495;DHT22;38405;53.212;5.660;2023-11-19T11:05:49;12.70;99.90
52495;DHT22;38405;53.212;5.660;2023-11-19T11:08:15;12.80;99.90
52495;DHT22;38405;53.212;5.660;2023-11-19T11:10:47;12.70;99.90
52495;DHT22;38405;53.212;5.660;2023-11-19T11:13:14;12.70;99.90
52495;DHT22;38405;53.212;5.660;2023-11-19T11:15:40;12.70;99.90
52495;DHT22;38405;53.212;5.660;2023-11-19T11:18:09;12.80;99.90
52495;DHT22;38405;53.212;5.660;2023-11-19T11:20:35;12.80;99.90
52495;DHT22;38405;53.212;5.660;2023-11-19T11:23:11;12.70;99.90
52495;DHT22;38405;53.212;5.660;2023-11-19T11:28:58;12.70;99.90
52495;DHT22;38405;53.212;5.660;2023-11-19T11:37:10;12.90;99.90
52495;DHT22;38405;53.212;5.660;2023-11-19T11:39:40;12.90;99.90
52495;DHT22;38405;53.212;5.660;2023-11-19T11:50:19;13.00;99.90
52495;DHT22;38405;53.212;5.660;2023-11-19T11:55:26;13.00;99.90
52495;DHT22;38405;53.212;5.660;2023-11-19T11:57:56;13.00;99.90
52495;DHT22;38405;53.212;5.660;2023-11-19T12:02:59;12.90;99.90
52495;DHT22;38405;53.212;5.660;2023-11-19T12:05:25;12.90;99.90
52495;DHT22;38405;53.212;5.660;2023-11-19T12:08:01;12.90;99.90
52495;DHT22;38405;53.212;5.660;2023-11-19T12:10:31;12.80;99.90
52495;DHT22;38405;53.212;5.660;2023-11-19T12:12:58;12.80;99.90
52495;DHT22;38405;53.212;5.660;2023-11-19T12:15:24;12.80;99.90
52495;DHT22;38405;53.212;5.660;2023-11-19T12:17:52;12.90;99.90
52495;DHT22;38405;53.212;5.660;2023-11-19T12:20:19;12.90;99.90
52495;DHT22;38405;53.212;5.660;2023-11-19T12:22:46;12.90;99.90
52495;DHT22;38405;53.212;5.660;2023-11-19T12:25:14;13.00;99.90
52495;DHT22;38405;53.212;5.660;2023-11-19T12:27:52;13.00;99.90
52495;DHT22;38405;53.212;5.660;2023-11-19T12:30:25;13.00;99.90
52495;DHT22;38405;53.212;5.660;2023-11-19T12:32:51;13.00;99.90
52495;DHT22;38405;53.212;5.660;2023-11-19T12:35:19;13.20;99.90
52495;DHT22;38405;53.212;5.660;2023-11-19T12:37:47;13.30;99.90
52495;DHT22;38405;53.212;5.660;2023-11-19T12:40:21;13.40;99.90
52495;DHT22;38405;53.212;5.660;2023-11-19T12:42:51;13.30;99.90
52495;DHT22;38405;53.212;5.660;2023-11-19T12:45:18;13.30;99.90
52495;DHT22;38405;53.212;5.660;2023-11-19T12:47:45;13.20;99.90
52495;DHT22;38405;53.212;5.660;2023-11-19T12:50:15;13.10;99.90
52495;DHT22;38405;53.212;5.660;2023-11-19T12:52:42;13.00;99.90
52495;DHT22;38405;53.212;5.660;2023-11-19T12:55:28;13.10;99.90
52495;DHT22;38405;53.212;5.660;2023-11-19T12:57:55;13.00;99.90
52495;DHT22;38405;53.212;5.660;2023-11-19T13:00:25;13.00;99.90
52495;DHT22;38405;53.212;5.660;2023-11-19T13:02:55;12.90;99.90
52495;DHT22;38405;53.212;5.660;2023-11-19T13:08:01;12.80;99.90
52495;DHT22;38405;53.212;5.660;2023-11-19T13:10:27;12.70;99.90
52495;DHT22;38405;53.212;5.660;2023-11-19T13:13:19;12.70;99.90
52495;DHT22;38405;53.212;5.660;2023-11-19T13:15:45;12.60;99.90
52495;DHT22;38405;53.212;5.660;2023-11-19T13:18:12;12.60;99.90
52495;DHT22;38405;53.212;5.660;2023-11-19T13:20:38;12.60;99.90
52495;DHT22;38405;53.212;5.660;2023-11-19T13:23:06;12.50;99.90
52495;DHT22;38405;53.212;5.660;2023-11-19T13:25:34;12.50;99.90
52495;DHT22;38405;53.212;5.660;2023-11-19T13:28:00;12.50;99.90
52495;DHT22;38405;53.212;5.660;2023-11-19T13:30:26;12.50;99.90
52495;DHT22;38405;53.212;5.660;2023-11-19T13:32:52;12.40;99.90
52495;DHT22;38405;53.212;5.660;2023-11-19T13:35:18;12.40;99.90
52495;DHT22;38405;53.212;5.660;2023-11-19T13:37:47;12.40;99.90
52495;DHT22;38405;53.212;5.660;2023-11-19T13:40:13;12.40;99.90
52495;DHT22;38405;53.212;5.660;2023-11-19T13:42:43;12.40;99.90
52495;DHT22;38405;53.212;5.660;2023-11-19T13:45:13;12.40;99.90
52495;DHT22;38405;53.212;5.660;2023-11-19T13:47:40;12.40;99.90
52495;DHT22;38405;53.212;5.660;2023-11-19T13:50:10;12.50;99.90
52495;DHT22;38405;53.212;5.660;2023-11-19T13:52:37;12.40;99.90
52495;DHT22;38405;53.212;5.660;2023-11-19T13:55:07;12.30;99.90
52495;DHT22;38405;53.212;5.660;2023-11-19T13:57:37;12.30;99.90
52495;DHT22;38405;53.212;5.660;2023-11-19T14:00:04;12.30;99.90
52495;DHT22;38405;53.212;5.660;2023-11-19T14:02:45;12.20;99.90
52495;DHT22;38405;53.212;5.660;2023-11-19T14:05:13;12.30;99.90
52495;DHT22;38405;53.212;5.660;2023-11-19T14:07:39;12.20;99.90
52495;DHT22;38405;53.212;5.660;2023-11-19T14:10:06;12.10;99.90
52495;DHT22;38405;53.212;5.660;2023-11-19T14:12:32;12.10;99.90
52495;DHT22;38405;53.212;5.660;2023-11-19T14:14:58;12.20;99.90
52495;DHT22;38405;53.212;5.660;2023-11-19T14:17:25;12.20;99.90
52495;DHT22;38405;53.212;5.660;2023-11-19T14:19:51;12.10;99.90
52495;DHT22;38405;53.212;5.660;2023-11-19T14:22:17;12.20;99.90
52495;DHT22;38405;53.212;5.660;2023-11-19T14:24:42;12.10;99.90
52495;DHT22;38405;53.212;5.660;2023-11-19T14:27:09;12.10;99.90
52495;DHT22;38405;53.212;5.660;2023-11-19T14:29:35;12.10;99.90
52495;DHT22;38405;53.212;5.660;2023-11-19T14:32:02;12.10;99.90
52495;DHT22;38405;53.212;5.660;2023-11-19T14:34:32;12.10;99.90
52495;DHT22;38405;53.212;5.660;2023-11-19T14:36:58;12.00;99.90
52495;DHT22;38405;53.212;5.660;2023-11-19T14:39:24;12.00;99.90
52495;DHT22;38405;53.212;5.660;2023-11-19T14:41:50;11.90;99.90
52495;DHT22;38405;53.212;5.660;2023-11-19T14:44:16;12.00;99.90
52495;DHT22;38405;53.212;5.660;2023-11-19T14:46:42;11.90;99.90
52495;DHT22;38405;53.212;5.660;2023-11-19T14:49:08;11.90;99.90
52495;DHT22;38405;53.212;5.660;2023-11-19T14:51:40;11.90;99.90
52495;DHT22;38405;53.212;5.660;2023-11-19T14:54:06;11.90;99.90
52495;DHT22;38405;53.212;5.660;2023-11-19T14:56:31;11.90;99.90
52495;DHT22;38405;53.212;5.660;2023-11-19T14:58:57;11.90;99.90
52495;DHT22;38405;53.212;5.660;2023-11-19T15:01:24;11.90;99.90
52495;DHT22;38405;53.212;5.660;2023-11-19T15:03:50;11.90;99.90
52495;DHT22;38405;53.212;5.660;2023-11-19T15:06:16;11.90;99.90
52495;DHT22;38405;53.212;5.660;2023-11-19T15:08:41;11.80;99.90
52495;DHT22;38405;53.212;5.660;2023-11-19T15:11:07;11.90;99.90
52495;DHT22;38405;53.212;5.660;2023-11-19T15:13:35;11.80;99.90
52495;DHT22;38405;53.212;5.660;2023-11-19T15:16:03;11.80;99.90
52495;DHT22;38405;53.212;5.660;2023-11-19T15:18:31;11.70;99.90
52495;DHT22;38405;53.212;5.660;2023-11-19T15:20:57;11.60;99.90
52495;DHT22;38405;53.212;5.660;2023-11-19T15:23:22;11.50;99.90
52495;DHT22;38405;53.212;5.660;2023-11-19T15:25:48;11.50;99.90
52495;DHT22;38405;53.212;5.660;2023-11-19T15:28:15;11.50;99.90
52495;DHT22;38405;53.212;5.660;2023-11-19T15:30:40;11.40;99.90
52495;DHT22;38405;53.212;5.660;2023-11-19T15:33:06;11.30;99.90
52495;DHT22;38405;53.212;5.660;2023-11-19T15:35:34;11.30;99.90
52495;DHT22;38405;53.212;5.660;2023-11-19T15:38:00;11.30;99.90
52495;DHT22;38405;53.212;5.660;2023-11-19T15:40:25;11.30;99.90
52495;DHT22;38405;53.212;5.660;2023-11-19T15:42:52;11.20;99.90
52495;DHT22;38405;53.212;5.660;2023-11-19T15:45:20;11.30;99.90
52495;DHT22;38405;53.212;5.660;2023-11-19T15:47:46;11.20;99.90
52495;DHT22;38405;53.212;5.660;2023-11-19T15:50:11;11.20;99.90
52495;DHT22;38405;53.212;5.660;2023-11-19T15:52:37;11.30;99.90
52495;DHT22;38405;53.212;5.660;2023-11-19T15:55:04;11.30;99.90
52495;DHT22;38405;53.212;5.660;2023-11-19T15:57:29;11.30;99.90